Time;durP1;ratioP1;P1;durP2;ratioP2;P2;SDS_P1;SDS_P2;PMS_P1;PMS_P2;Temp;Humidity;BMP_temperature;BMP_pressure;BME280_temperature;BME280_humidity;BME280_pressure;Samples;Min_cycle;Max_cycle;Signal;HPM_P1;HPM_P2
2022/05/18 00:02:06;;;;;;;0.00;0.00;;;;;;;22.92;46.12;101516.13;5124460;28;20448;-33
2022/05/18 00:04:32;;;;;;;0.10;0.10;;;;;;;22.93;46.22;101516.97;5127184;27;20066;-32
2022/05/18 00:06:57;;;;;;;0.10;0.10;;;;;;;22.92;46.31;101516.13;5126501;28;20052;-31
2022/05/18 00:09:23;;;;;;;0.10;0.10;;;;;;;22.92;46.25;101521.69;5127437;28;20043;-31
2022/05/18 00:11:49;;;;;;;0.10;0.10;;;;;;;22.92;46.31;101531.97;5125822;28;20474;-31
2022/05/18 00:14:15;;;;;;;0.10;0.10;;;;;;;22.92;46.29;101532.78;5127799;28;20071;-31
2022/05/18 00:16:41;;;;;;;0.10;0.10;;;;;;;22.92;46.27;101532.78;5127816;28;20400;-33
2022/05/18 00:19:06;;;;;;;0.10;0.10;;;;;;;22.92;46.18;101531.97;5124925;27;20044;-31
2022/05/18 00:21:32;;;;;;;0.10;0.10;;;;;;;22.91;46.25;101533.91;5128313;28;20036;-32
2022/05/18 00:23:59;;;;;;;0.10;0.10;;;;;;;22.92;46.17;101541.13;5127449;28;20047;-31
2022/05/18 00:26:25;;;;;;;0.10;0.10;;;;;;;22.91;46.21;101536.69;5128063;28;20425;-31
2022/05/18 00:28:51;;;;;;;0.10;0.10;;;;;;;22.91;46.15;101535.88;5126421;28;20134;-32
2022/05/18 00:31:18;;;;;;;0.10;0.10;;;;;;;22.92;46.25;101537.53;5126781;28;20067;-32
2022/05/18 00:33:46;;;;;;;0.00;0.00;;;;;;;22.92;46.19;101534.75;5126104;28;20051;-31
2022/05/18 00:36:11;;;;;;;0.10;0.10;;;;;;;22.91;46.28;101547.81;5108082;28;20466;-32
2022/05/18 00:38:37;;;;;;;0.10;0.10;;;;;;;22.91;46.18;101541.44;5125365;28;20148;-30
2022/05/18 00:41:03;;;;;;;0.10;0.10;;;;;;;22.91;46.33;101542.25;5124733;28;20047;-32
2022/05/18 00:46:07;;;;;;;0.10;0.10;;;;;;;22.91;46.26;101552.53;5164170;27;20124;-29
2022/05/18 00:48:33;;;;;;;0.10;0.10;;;;;;;22.91;46.29;101555.31;5158591;27;20042;-30
2022/05/18 00:51:02;;;;;;;0.10;0.10;;;;;;;22.91;46.28;101549.75;5163631;27;20049;-30
2022/05/18 00:53:28;;;;;;;;;;;;;;;22.92;46.11;101551.41;5140985;27;20100;-31
2022/05/18 00:56:00;;;;;;;0.10;0.10;;;;;;;22.90;46.27;101546.16;5160472;27;20010;-30
2022/05/18 00:58:31;;;;;;;0.10;0.10;;;;;;;22.89;46.17;101555.59;5162672;27;20171;-29
2022/05/18 01:00:57;;;;;;;0.10;0.10;;;;;;;22.91;46.30;101549.75;5142127;27;20082;-30
2022/05/18 01:03:26;;;;;;;0.10;0.10;;;;;;;22.90;46.22;101557.25;5161668;27;20042;-29
2022/05/18 01:05:57;;;;;;;0.10;0.10;;;;;;;22.90;46.26;101560.03;5159542;27;20082;-29
2022/05/18 01:08:32;;;;;;;0.10;0.10;;;;;;;22.90;46.07;101565.59;5163521;27;20441;-29
2022/05/18 01:10:57;;;;;;;0.00;0.00;;;;;;;22.89;46.24;101565.88;5145199;27;20134;-30
2022/05/18 01:13:23;;;;;;;0.10;0.10;;;;;;;22.89;46.23;101563.91;5163079;27;20117;-30
2022/05/18 01:15:49;;;;;;;0.10;0.10;;;;;;;22.90;46.19;101573.94;5160928;27;20053;-29
2022/05/18 01:18:15;;;;;;;0.10;0.10;;;;;;;22.89;46.31;101565.88;5161949;27;20541;-30
2022/05/18 01:20:42;;;;;;;0.10;0.10;;;;;;;22.90;46.21;101564.78;5162522;27;20038;-29
2022/05/18 01:23:29;;;;;;;0.10;0.10;;;;;;;22.90;46.17;101567.56;5160817;27;20088;-32
2022/05/18 01:26:16;;;;;;;0.00;0.00;;;;;;;22.89;46.35;101565.88;5159001;27;20112;-29
2022/05/18 01:28:56;;;;;;;0.00;0.00;;;;;;;22.90;46.19;101564.78;5144057;27;20469;-29
2022/05/18 01:31:45;;;;;;;0.10;0.10;;;;;;;22.87;46.23;101570.88;5162933;27;20125;-29
2022/05/18 01:34:12;;;;;;;0.10;0.10;;;;;;;22.87;46.30;101560.59;5162310;27;20054;-30
2022/05/18 01:36:37;;;;;;;0.10;0.10;;;;;;;22.87;46.29;101568.91;5161723;27;20077;-28
2022/05/18 01:39:06;;;;;;;0.10;0.10;;;;;;;22.88;46.28;101569.75;5138184;27;20035;-29
2022/05/18 01:41:34;;;;;;;0.10;0.10;;;;;;;22.88;46.31;101559.47;5161781;27;20311;-29
2022/05/18 01:44:01;;;;;;;0.10;0.10;;;;;;;22.89;46.23;101565.88;5158271;27;20062;-29
2022/05/18 01:46:28;;;;;;;0.10;0.10;;;;;;;22.88;46.15;101564.19;5160905;27;20066;-29
2022/05/18 01:48:55;;;;;;;0.10;0.10;;;;;;;22.87;46.34;101566.13;5162780;27;20047;-30
2022/05/18 01:51:32;;;;;;;0.10;0.10;;;;;;;22.87;46.16;101568.91;5143133;27;20129;-30
2022/05/18 01:53:58;;;;;;;0.10;0.10;;;;;;;22.87;46.21;101568.91;5161070;27;20085;-29
2022/05/18 01:56:24;;;;;;;0.10;0.10;;;;;;;22.87;46.21;101571.69;5152947;27;20363;-29
2022/05/18 01:58:50;;;;;;;0.10;0.10;;;;;;;22.87;46.33;101576.41;5143191;27;20126;-30
2022/05/18 02:01:16;;;;;;;0.10;0.10;;;;;;;22.86;46.27;101570.03;5146133;27;20051;-29
2022/05/18 02:03:41;;;;;;;0.10;0.10;;;;;;;22.86;46.16;101575.59;5143556;27;20043;-29
2022/05/18 02:06:07;;;;;;;0.10;0.10;;;;;;;22.87;46.21;101576.41;5146513;27;20054;-30
2022/05/18 02:08:33;;;;;;;0.10;0.10;;;;;;;22.87;46.24;101573.66;5139990;27;20035;-30
2022/05/18 02:10:59;;;;;;;0.10;0.10;;;;;;;22.86;46.19;101577.56;5145547;27;20071;-29
2022/05/18 02:13:25;;;;;;;0.10;0.10;;;;;;;22.86;46.16;101567.28;5144637;27;20053;-29
2022/05/18 02:15:50;;;;;;;0.10;0.10;;;;;;;22.86;46.11;101572.00;5142153;27;20493;-30
2022/05/18 02:18:16;;;;;;;0.10;0.10;;;;;;;22.86;46.21;101572.81;5147682;27;20473;-29
2022/05/18 02:20:42;;;;;;;0.10;0.10;;;;;;;22.87;46.34;101577.25;5147986;27;20422;-30
2022/05/18 02:23:08;;;;;;;0.10;0.10;;;;;;;22.87;46.18;101577.25;5144870;27;20085;-30
2022/05/18 02:25:35;;;;;;;0.08;0.08;;;;;;;22.86;46.23;101572.81;5146234;27;20529;-29
2022/05/18 02:28:01;;;;;;;0.10;0.10;;;;;;;22.85;46.24;101573.94;5146628;27;20070;-29
2022/05/18 02:30:26;;;;;;;0.10;0.10;;;;;;;22.86;46.23;101574.78;5146428;27;20049;-30
2022/05/18 02:32:52;;;;;;;0.10;0.10;;;;;;;22.84;46.24;101577.84;5148825;27;20041;-29
2022/05/18 02:35:18;;;;;;;0.10;0.10;;;;;;;22.86;46.10;101567.28;5147820;27;20056;-28
2022/05/18 02:37:44;;;;;;;0.10;0.10;;;;;;;22.86;46.10;101580.31;5147811;27;20038;-29
2022/05/18 02:40:11;;;;;;;0.10;0.10;;;;;;;22.85;46.20;101573.94;5148197;27;20050;-30
2022/05/18 02:42:37;;;;;;;0.10;0.10;;;;;;;22.85;46.21;101575.91;5143954;27;20554;-30
2022/05/18 02:45:03;;;;;;;0.10;0.10;;;;;;;22.84;46.23;101575.06;5144492;27;20039;-29
2022/05/18 02:47:29;;;;;;;0.10;0.10;;;;;;;22.85;46.17;101568.41;5147702;27;20123;-30
2022/05/18 02:49:55;;;;;;;0.10;0.10;;;;;;;22.84;46.26;101569.53;5138620;27;20043;-29
2022/05/18 02:52:20;;;;;;;0.10;0.10;;;;;;;22.83;46.31;101567.84;5145643;27;20035;-29
2022/05/18 02:57:31;;;;;;;0.10;0.10;;;;;;;22.85;46.11;101571.16;5131308;27;20071;-31
2022/05/18 02:59:57;;;;;;;0.10;0.10;;;;;;;22.84;46.20;101563.97;5146492;27;20054;-29
2022/05/18 03:02:23;;;;;;;0.10;0.10;;;;;;;22.84;46.23;101563.97;5146673;27;20093;-29
2022/05/18 03:04:49;;;;;;;0.10;0.10;;;;;;;22.83;46.20;101567.84;5146640;27;20488;-30
2022/05/18 03:07:15;;;;;;;0.10;0.10;;;;;;;22.85;46.14;101573.94;5147141;27;20056;-32
2022/05/18 03:09:40;;;;;;;0.10;0.10;;;;;;;22.83;46.29;101567.84;5129488;27;20432;-30
2022/05/18 03:12:06;;;;;;;0.10;0.10;;;;;;;22.84;46.26;101572.28;5147575;27;20043;-32
2022/05/18 03:14:32;;;;;;;0.08;0.08;;;;;;;22.84;46.12;101575.06;5148682;27;20487;-29
2022/05/18 03:16:59;;;;;;;0.10;0.10;;;;;;;22.86;46.22;101577.56;5143403;27;20088;-28
2022/05/18 03:19:25;;;;;;;0.10;0.10;;;;;;;22.85;46.25;101573.13;5126560;27;20118;-28
2022/05/18 03:24:36;;;;;;;0.10;0.10;;;;;;;22.82;46.43;101574.53;5132612;27;20146;-30
2022/05/18 03:27:02;;;;;;;0.10;0.10;;;;;;;22.83;46.22;101586.44;5147573;27;20674;-29
2022/05/18 03:29:28;;;;;;;0.10;0.10;;;;;;;22.83;46.29;101586.44;5142668;27;20039;-29
2022/05/18 03:31:53;;;;;;;0.10;0.10;;;;;;;22.82;46.14;101593.97;5143612;27;20051;-29
2022/05/18 03:34:19;;;;;;;0.10;0.10;;;;;;;22.82;46.14;101582.84;5148997;27;20038;-30
2022/05/18 03:36:45;;;;;;;0.10;0.10;;;;;;;22.83;46.21;101584.50;5145692;27;20521;-29
2022/05/18 03:39:11;;;;;;;0.10;0.10;;;;;;;22.83;46.18;101600.34;5147065;27;20381;-29
2022/05/18 03:41:37;;;;;;;0.10;0.10;;;;;;;22.82;46.25;101598.69;5147727;27;20396;-29
2022/05/18 03:44:03;;;;;;;0.10;0.10;;;;;;;22.82;46.24;101593.97;5145789;27;20079;-28
2022/05/18 03:46:29;;;;;;;0.10;0.10;;;;;;;22.83;46.18;101601.16;5148534;27;20468;-28
2022/05/18 03:48:55;;;;;;;0.10;0.10;;;;;;;22.83;46.16;101608.66;5144776;27;20053;-31
2022/05/18 03:51:20;;;;;;;0.10;0.10;;;;;;;22.81;46.13;101606.19;5148196;27;20549;-29
2022/05/18 03:53:46;;;;;;;0.10;0.10;;;;;;;22.82;46.14;101612.56;5144378;27;20047;-30
2022/05/18 03:56:13;;;;;;;0.00;0.00;;;;;;;22.83;46.14;101611.44;5144940;27;20141;-28
2022/05/18 03:58:39;;;;;;;0.10;0.10;;;;;;;22.82;46.18;101610.63;5144964;27;20175;-29
2022/05/18 04:01:08;;;;;;;0.10;0.10;;;;;;;22.81;46.25;101614.53;5147411;27;20058;-29
2022/05/18 04:03:36;;;;;;;0.10;0.10;;;;;;;22.82;46.17;101610.63;5127027;27;20123;-32
2022/05/18 04:06:02;;;;;;;;;;;;;;;22.82;46.24;101602.28;5142067;27;20047;-29
2022/05/18 04:08:28;;;;;;;0.10;0.10;;;;;;;22.81;46.18;101599.81;5141585;27;19926;-30
2022/05/18 04:10:54;;;;;;;0.10;0.10;;;;;;;22.81;46.20;101610.91;5144096;27;20465;-30
2022/05/18 04:13:21;;;;;;;0.10;0.10;;;;;;;22.81;46.13;101614.53;5144323;27;20129;-29
2022/05/18 04:15:47;;;;;;;0.10;0.10;;;;;;;22.82;46.22;101613.41;5147679;27;20078;-29
2022/05/18 04:18:13;;;;;;;0.10;0.10;;;;;;;22.81;46.13;101627.59;5122093;27;20088;-28
2022/05/18 04:20:39;;;;;;;0.10;0.10;;;;;;;22.81;46.22;101624.81;5147732;27;20038;-29
2022/05/18 04:23:06;;;;;;;0.10;0.10;;;;;;;22.82;46.28;101626.47;5145486;27;20050;-30
2022/05/18 04:25:32;;;;;;;0.10;0.10;;;;;;;22.82;46.01;101630.06;5146454;27;20129;-30
2022/05/18 04:27:57;;;;;;;0.10;0.10;;;;;;;22.81;46.13;101633.97;5141547;27;20078;-27
2022/05/18 04:30:25;;;;;;;0.10;0.10;;;;;;;22.81;46.12;101633.97;5144149;27;20384;-30
2022/05/18 04:32:51;;;;;;;0.10;0.10;;;;;;;22.82;46.14;101637.56;5144696;27;20073;-29
2022/05/18 04:35:20;;;;;;;0.00;0.00;;;;;;;22.82;46.18;101637.56;5127619;27;20137;-30
2022/05/18 04:37:47;;;;;;;0.10;0.10;;;;;;;22.81;46.09;101636.75;5143880;27;20061;-30
2022/05/18 04:40:12;;;;;;;0.10;0.10;;;;;;;22.81;46.18;101645.06;5146187;27;20070;-30
2022/05/18 04:42:38;;;;;;;0.10;0.10;;;;;;;22.80;46.13;101640.63;5143153;27;20430;-29
2022/05/18 04:45:07;;;;;;;0.10;0.10;;;;;;;22.80;46.22;101637.88;5143258;27;20047;-29
2022/05/18 04:47:32;;;;;;;0.10;0.10;;;;;;;22.80;46.28;101643.41;5143765;27;20536;-29
2022/05/18 04:49:58;;;;;;;0.10;0.10;;;;;;;22.79;46.10;101637.00;5144675;27;20083;-32
2022/05/18 04:52:24;;;;;;;0.10;0.10;;;;;;;22.81;46.19;101642.28;5144275;27;20469;-31
2022/05/18 04:54:50;;;;;;;0.10;0.10;;;;;;;22.81;46.21;101641.47;5145736;27;20137;-29
2022/05/18 04:57:16;;;;;;;0.10;0.10;;;;;;;22.81;46.20;101641.47;5142251;27;20042;-29
2022/05/18 04:59:42;;;;;;;0.10;0.10;;;;;;;22.81;46.22;101647.03;5143307;27;20035;-31
2022/05/18 05:02:08;;;;;;;0.10;0.10;;;;;;;22.81;46.12;101655.34;5145139;27;20093;-33
2022/05/18 05:04:35;;;;;;;0.10;0.10;;;;;;;22.81;46.22;101653.41;5125382;27;20524;-30
2022/05/18 05:07:01;;;;;;;0.10;0.10;;;;;;;22.81;46.33;101649.81;5121981;27;20173;-29
2022/05/18 05:09:27;;;;;;;0.10;0.10;;;;;;;22.81;46.18;101661.72;5127938;27;20047;-30
2022/05/18 05:11:53;;;;;;;0.10;0.10;;;;;;;22.81;46.17;101664.50;5142913;27;20585;-30
2022/05/18 05:14:19;;;;;;;0.10;0.10;;;;;;;22.80;46.22;101665.63;5128001;27;20130;-31
2022/05/18 05:16:45;;;;;;;0.10;0.10;;;;;;;22.81;46.19;101670.06;5121196;27;20042;-29
2022/05/18 05:19:11;;;;;;;0.10;0.10;;;;;;;22.80;46.15;101668.41;5124147;27;20047;-30
2022/05/18 05:21:42;;;;;;;0.10;0.10;;;;;;;22.81;46.20;101672.00;5137314;27;20084;-29
2022/05/18 05:24:15;;;;;;;0.10;0.10;;;;;;;22.81;46.15;101669.25;5145400;27;20046;-29
2022/05/18 05:26:42;;;;;;;0.10;0.10;;;;;;;22.80;46.25;101676.75;5142069;27;20079;-29
2022/05/18 05:29:08;;;;;;;0.10;0.10;;;;;;;22.79;46.28;101675.88;5143340;27;20081;-29
2022/05/18 05:31:35;;;;;;;0.10;0.10;;;;;;;22.81;46.16;101672.84;5142347;27;20078;-29
2022/05/18 05:34:00;;;;;;;0.10;0.10;;;;;;;22.80;46.20;101673.97;5126512;27;20054;-29
2022/05/18 05:36:27;;;;;;;0.10;0.10;;;;;;;22.81;46.38;101672.00;5150309;27;20046;-30
2022/05/18 05:38:52;;;;;;;0.10;0.10;;;;;;;22.81;46.29;101677.56;5143341;27;20066;-31
2022/05/18 05:41:18;;;;;;;0.10;0.10;;;;;;;22.80;46.19;101676.75;5147095;27;20115;-29
2022/05/18 05:43:44;;;;;;;0.10;0.10;;;;;;;22.80;46.17;101676.75;5146172;27;20054;-30
2022/05/18 05:46:13;;;;;;;0.10;0.10;;;;;;;22.80;46.21;101679.53;5127603;27;20050;-29
2022/05/18 05:48:41;;;;;;;0.10;0.10;;;;;;;22.79;46.28;101675.06;5140371;27;20513;-28
2022/05/18 05:51:11;;;;;;;0.10;0.10;;;;;;;22.79;46.28;101678.66;5145843;27;20070;-29
2022/05/18 05:53:40;;;;;;;0.10;0.10;;;;;;;22.79;46.21;101675.88;5142576;27;20460;-31
2022/05/18 05:56:06;;;;;;;;;;;;;;;22.79;46.15;101684.22;5147763;27;20066;-30
2022/05/18 05:58:33;;;;;;;0.10;0.10;;;;;;;22.79;46.28;101683.38;5136008;27;20034;-29
2022/05/18 06:01:00;;;;;;;0.10;0.10;;;;;;;22.80;46.21;101679.53;5145770;27;20544;-29
2022/05/18 06:03:26;;;;;;;0.10;0.10;;;;;;;22.79;46.24;101675.88;5137479;27;20709;-33
2022/05/18 06:05:52;;;;;;;0.10;0.10;;;;;;;22.80;46.30;101673.97;5120217;27;20553;-31
2022/05/18 06:08:18;;;;;;;0.10;0.10;;;;;;;22.80;46.28;101679.53;5137026;27;20066;-31
2022/05/18 06:10:43;;;;;;;0.10;0.10;;;;;;;22.80;46.28;101687.84;5138600;27;20073;-32
2022/05/18 06:13:11;;;;;;;0.10;0.10;;;;;;;22.81;46.26;101685.91;5120587;27;20072;-31
2022/05/18 06:15:37;;;;;;;0.10;0.10;;;;;;;22.79;46.23;101691.72;5111380;27;20134;-31
2022/05/18 06:18:04;;;;;;;0.10;0.10;;;;;;;22.79;46.20;101681.44;5135559;27;20047;-30
2022/05/18 06:20:30;;;;;;;0.10;0.10;;;;;;;22.79;46.18;101687.00;5146656;27;20501;-33
2022/05/18 06:22:59;;;;;;;0.10;0.10;;;;;;;22.79;46.20;101686.16;5120847;27;20043;-31
2022/05/18 06:25:25;;;;;;;0.10;0.10;;;;;;;22.79;46.35;101684.22;5137045;27;20141;-32
2022/05/18 06:27:51;;;;;;;0.10;0.10;;;;;;;22.78;46.12;101688.13;5138700;27;20145;-32
2022/05/18 06:30:16;;;;;;;0.10;0.10;;;;;;;22.79;46.27;101692.53;5140045;27;20050;-30
2022/05/18 06:32:42;;;;;;;0.10;0.10;;;;;;;22.80;46.13;101690.63;5141464;27;20035;-33
2022/05/18 06:35:08;;;;;;;0.10;0.10;;;;;;;22.80;46.22;101693.41;5139488;27;20485;-31
2022/05/18 06:37:34;;;;;;;0.10;0.10;;;;;;;22.78;46.28;101696.44;5149032;27;20053;-31
2022/05/18 06:40:03;;;;;;;0.10;0.10;;;;;;;22.80;46.25;101701.75;5140476;27;20042;-31
2022/05/18 06:42:29;;;;;;;0.08;0.08;;;;;;;22.81;46.14;101702.56;5121601;27;20165;-31
2022/05/18 06:44:55;;;;;;;0.10;0.10;;;;;;;22.80;46.27;101698.97;5139294;27;20054;-33
2022/05/18 06:47:20;;;;;;;0.30;0.20;;;;;;;22.79;46.19;101703.66;5130713;27;20102;-31
2022/05/18 06:49:47;;;;;;;0.10;0.10;;;;;;;22.79;46.37;101700.88;5138985;27;20409;-33
2022/05/18 06:52:17;;;;;;;0.10;0.10;;;;;;;22.78;46.24;101702.00;5117201;27;20484;-31
2022/05/18 06:54:42;;;;;;;0.10;0.10;;;;;;;22.79;46.05;101709.22;5123478;27;20042;-34
2022/05/18 06:57:20;;;;;;;0.22;0.20;;;;;;;22.80;46.30;101718.41;5132303;27;20178;-31
2022/05/18 06:59:46;;;;;;;0.10;0.10;;;;;;;22.80;46.22;101704.50;5129533;27;20125;-31
2022/05/18 07:02:12;;;;;;;0.10;0.10;;;;;;;22.81;46.19;101716.44;5125157;27;20137;-31
2022/05/18 07:04:37;;;;;;;0.08;0.08;;;;;;;22.80;46.23;101710.06;5125728;27;20092;-30
2022/05/18 07:07:03;;;;;;;0.10;0.10;;;;;;;22.79;46.23;101714.75;5127249;27;20446;-33
2022/05/18 07:09:29;;;;;;;0.10;0.10;;;;;;;22.81;46.33;101708.13;5129111;27;20052;-32
2022/05/18 07:11:55;;;;;;;0.10;0.10;;;;;;;22.80;46.15;101707.28;5135391;27;20050;-31
2022/05/18 07:14:24;;;;;;;0.10;0.10;;;;;;;22.80;46.30;101710.06;5135047;27;20043;-31
2022/05/18 07:16:50;;;;;;;0.10;0.10;;;;;;;22.81;46.13;101702.56;5111012;27;20074;-32
2022/05/18 07:19:17;;;;;;;0.10;0.10;;;;;;;22.81;46.19;101700.63;5117622;27;20518;-31
2022/05/18 07:21:43;;;;;;;0.10;0.10;;;;;;;22.81;46.11;101700.63;5138295;27;20122;-32
2022/05/18 07:24:09;;;;;;;0.10;0.10;;;;;;;22.81;46.21;101697.00;5138328;27;20437;-31
2022/05/18 07:26:35;;;;;;;0.10;0.10;;;;;;;22.81;46.18;101699.78;5141634;27;20104;-32
2022/05/18 07:29:02;;;;;;;0.00;0.00;;;;;;;22.81;46.58;101695.06;5138783;27;20138;-30
2022/05/18 07:31:29;;;;;;;0.10;0.10;;;;;;;22.83;46.28;101698.38;5137131;27;20126;-32
2022/05/18 07:34:15;;;;;;;0.10;0.10;;;;;;;22.83;46.43;101695.59;5113938;27;20465;-30
2022/05/18 07:36:41;;;;;;;0.10;0.10;;;;;;;22.83;46.12;101695.59;5137085;27;20049;-31
2022/05/18 07:39:06;;;;;;;0.10;0.10;;;;;;;22.86;46.17;101694.19;5139820;27;20466;-35
2022/05/18 07:41:32;;;;;;;0.10;0.10;;;;;;;22.85;46.03;101701.69;5143752;27;20451;-32
2022/05/18 07:43:58;;;;;;;0.10;0.10;;;;;;;22.86;46.25;101702.53;5136094;27;20049;-31
2022/05/18 07:46:23;;;;;;;0.10;0.10;;;;;;;22.86;46.27;101696.97;5117673;27;20080;-31
2022/05/18 07:48:49;;;;;;;0.10;0.10;;;;;;;22.86;46.09;101688.63;5138217;27;20409;-34
2022/05/18 07:51:15;;;;;;;0.10;0.10;;;;;;;22.87;46.23;101693.91;5139840;27;20040;-35
2022/05/18 07:53:41;;;;;;;0.10;0.10;;;;;;;22.87;46.14;101695.84;5141491;27;20451;-32
2022/05/18 07:56:12;;;;;;;0.10;0.10;;;;;;;22.89;46.15;101691.69;5137694;27;20087;-35
2022/05/18 07:58:37;;;;;;;0.00;0.00;;;;;;;22.90;46.11;101703.66;5140969;27;20089;-32
2022/05/18 08:01:03;;;;;;;0.10;0.10;;;;;;;22.91;46.27;101702.53;5136907;27;20046;-32
2022/05/18 08:03:29;;;;;;;0.10;0.10;;;;;;;22.91;46.03;101706.13;5136928;27;20050;-31
2022/05/18 08:05:54;;;;;;;0.10;0.10;;;;;;;22.92;46.11;101704.16;5135559;27;20055;-33
2022/05/18 08:08:22;;;;;;;0.10;0.10;;;;;;;22.93;46.16;101700.31;5111305;27;20043;-33
2022/05/18 08:16:19;;;;;;;0.10;0.10;;;;;;;23.00;46.29;101709.94;5117022;27;20082;-31
2022/05/18 08:18:46;;;;;;;0.10;0.10;;;;;;;22.99;46.22;101711.06;5131886;27;20098;-31
2022/05/18 08:21:12;;;;;;;0.05;0.05;;;;;;;23.00;46.25;101715.50;5115895;27;20101;-32
2022/05/18 08:23:38;;;;;;;0.10;0.10;;;;;;;23.00;46.23;101712.72;5135848;27;20059;-31
2022/05/18 08:26:04;;;;;;;0.10;0.10;;;;;;;23.02;46.75;101713.28;5136490;27;20141;-37
2022/05/18 08:28:31;;;;;;;0.05;0.05;;;;;;;23.06;46.50;101710.75;5130504;27;20376;-31
2022/05/18 08:30:58;;;;;;;0.10;0.10;;;;;;;23.09;46.35;101703.78;5137833;27;20074;-31
2022/05/18 08:33:24;;;;;;;0.10;0.10;;;;;;;23.08;46.33;101705.75;5130001;27;20126;-31
2022/05/18 08:35:50;;;;;;;0.10;0.10;;;;;;;23.08;46.24;101711.28;5127825;27;20054;-31
2022/05/18 08:38:17;;;;;;;0.00;0.00;;;;;;;23.09;46.13;101709.34;5121705;27;20389;-31
2022/05/18 08:40:49;;;;;;;0.10;0.10;;;;;;;23.09;46.25;101701.84;5130219;27;20104;-32
2022/05/18 08:43:22;;;;;;;0.00;0.00;;;;;;;23.10;46.17;101709.06;5128061;27;20614;-32
2022/05/18 08:45:59;;;;;;;0.00;0.00;;;;;;;23.11;46.12;101707.13;5137466;27;20215;-33
2022/05/18 08:48:38;;;;;;;0.10;0.10;;;;;;;23.11;46.28;101705.16;5125218;27;20039;-31
2022/05/18 08:51:12;;;;;;;0.10;0.10;;;;;;;23.12;46.05;101711.56;5115287;27;20133;-32
2022/05/18 08:54:38;;;;;;;0.10;0.10;;;;;;;23.13;46.02;101711.25;5117164;27;20062;-32
2022/05/18 08:57:28;;;;;;;0.10;0.10;;;;;;;23.14;46.10;101710.13;5109374;27;20160;-31
2022/05/18 08:59:56;;;;;;;0.10;0.10;;;;;;;23.15;45.94;101709.03;5122020;27;20074;-31
2022/05/18 09:02:30;;;;;;;0.00;0.00;;;;;;;23.16;45.99;101715.41;5122187;27;20045;-32
2022/05/18 09:05:00;;;;;;;0.10;0.10;;;;;;;23.17;45.93;101715.13;5138959;27;20042;-32
2022/05/18 09:07:53;;;;;;;0.10;0.10;;;;;;;23.19;46.03;101712.06;5112925;27;20042;-31
2022/05/18 09:10:30;;;;;;;0.05;0.05;;;;;;;23.19;45.99;101707.34;5146906;27;20103;-34
2022/05/18 09:12:56;;;;;;;0.05;0.05;;;;;;;23.20;45.81;101706.22;5139843;27;20179;-32
2022/05/18 09:15:34;;;;;;;0.00;0.00;;;;;;;23.22;45.76;101706.72;5139613;27;20050;-31
2022/05/18 09:20:54;;;;;;;0.10;0.10;;;;;;;23.23;45.83;101705.63;5157326;27;20249;-33
2022/05/18 09:23:51;;;;;;;0.00;0.00;;;;;;;23.24;45.74;101696.19;5135538;27;20832;-34
2022/05/18 09:26:41;;;;;;;0.10;0.10;;;;;;;23.20;46.83;101702.59;5117542;27;20098;-34
2022/05/18 09:29:31;;;;;;;0.10;0.10;;;;;;;23.29;46.40;101698.09;5116341;27;20077;-32
2022/05/18 09:35:13;;;;;;;0.10;0.10;;;;;;;23.33;45.99;101693.59;5150762;27;20548;-30
2022/05/18 09:37:42;;;;;;;0.00;0.00;;;;;;;23.34;46.08;101697.22;5116762;27;20346;-28
2022/05/18 09:40:19;;;;;;;0.10;0.10;;;;;;;23.35;45.98;101699.69;5112308;27;20086;-31
2022/05/18 09:42:53;;;;;;;0.00;0.00;;;;;;;23.36;45.95;101692.16;5108177;27;20118;-28
2022/05/18 09:45:22;;;;;;;0.10;0.10;;;;;;;23.35;45.95;101693.31;5097745;27;20469;-32
2022/05/18 09:47:57;;;;;;;0.00;0.00;;;;;;;23.36;45.85;101693.03;5113360;27;20047;-30
2022/05/18 09:50:23;;;;;;;0.10;0.10;;;;;;;23.38;45.84;101698.28;5114687;27;20539;-28
2022/05/18 09:52:49;;;;;;;0.10;0.10;;;;;;;23.38;45.69;101696.34;5110773;27;20039;-30
2022/05/18 09:55:20;;;;;;;0.00;0.00;;;;;;;23.40;45.67;101701.59;5106941;27;20138;-30
2022/05/18 09:58:05;;;;;;;0.10;0.10;;;;;;;23.39;46.41;101686.88;5111202;27;20048;-31
2022/05/18 10:00:33;;;;;;;0.00;0.00;;;;;;;23.44;46.24;101691.56;5117747;27;20089;-35
2022/05/18 10:08:45;;;;;;;0.10;0.10;;;;;;;23.46;45.98;101679.03;5111775;27;20135;-31
2022/05/18 10:11:16;;;;;;;0.10;0.10;;;;;;;23.47;46.04;101679.84;5114339;27;20086;-31
2022/05/18 10:13:56;;;;;;;0.10;0.10;;;;;;;23.47;45.89;101679.84;5106308;28;20533;-34
2022/05/18 10:16:32;;;;;;;0.10;0.10;;;;;;;23.48;45.76;101671.22;5097191;27;20138;-32
2022/05/18 10:18:59;;;;;;;0.03;0.03;;;;;;;23.50;45.87;101674.53;5117005;27;20055;-33
2022/05/18 10:21:40;;;;;;;0.10;0.10;;;;;;;23.50;45.76;101671.78;5109449;27;20159;-35
2022/05/18 10:24:24;;;;;;;0.10;0.10;;;;;;;23.51;45.63;101673.41;5117077;27;20493;-30
2022/05/18 10:27:09;;;;;;;0.10;0.10;;;;;;;23.52;45.73;101661.16;5116314;27;20078;-32
2022/05/18 10:29:35;;;;;;;0.10;0.10;;;;;;;23.53;45.69;101667.56;5103193;27;20048;-32
2022/05/18 10:32:05;;;;;;;0.10;0.10;;;;;;;23.52;45.61;101663.94;5117951;27;20131;-32
2022/05/18 10:34:33;;;;;;;0.00;0.00;;;;;;;23.54;45.67;101658.13;5119390;27;20090;-32
2022/05/18 10:37:01;;;;;;;0.00;0.00;;;;;;;23.55;45.68;101656.97;5115649;27;20226;-32
2022/05/18 10:39:46;;;;;;;0.10;0.10;;;;;;;23.55;45.72;101656.97;5102581;27;20079;-32
2022/05/18 10:42:24;;;;;;;0.10;0.10;;;;;;;23.56;45.56;101653.06;5119523;27;20426;-33
2022/05/18 10:44:52;;;;;;;0.00;0.00;;;;;;;23.57;45.42;101649.16;5105531;27;20051;-32
2022/05/18 10:50:32;;;;;;;0.05;0.05;;;;;;;23.59;45.63;101646.13;5155823;27;20338;-29
2022/05/18 10:53:01;;;;;;;0.00;0.00;;;;;;;23.59;45.55;101655.28;5119755;27;20770;-29
2022/05/18 10:55:29;;;;;;;0.10;0.10;;;;;;;23.58;45.49;101642.50;5130566;27;20043;-29
2022/05/18 10:58:00;;;;;;;0.10;0.10;;;;;;;23.61;45.49;101643.84;5115715;27;20453;-32
2022/05/18 11:00:54;;;;;;;0.00;0.00;;;;;;;23.61;45.69;101641.91;5133079;27;20146;-30
2022/05/18 11:03:32;;;;;;;0.10;0.10;;;;;;;23.61;45.50;101641.06;5117727;27;21594;-30
2022/05/18 11:06:03;;;;;;;0.00;0.00;;;;;;;23.62;45.55;101639.94;5130313;27;20048;-30
2022/05/18 11:08:31;;;;;;;0.00;0.00;;;;;;;23.61;45.44;101638.28;5117780;27;20039;-30
2022/05/18 11:11:36;;;;;;;0.10;0.10;;;;;;;23.61;45.48;101636.34;5116561;27;20192;-32
2022/05/18 11:14:24;;;;;;;0.10;0.10;;;;;;;23.61;45.36;101629.94;5129431;27;20089;-35
2022/05/18 11:17:00;;;;;;;0.10;0.10;;;;;;;23.61;45.43;101638.28;5108655;27;20502;-33
2022/05/18 11:19:48;;;;;;;0.10;0.10;;;;;;;23.60;45.54;101633.84;5130281;27;20183;-32
2022/05/18 11:25:10;;;;;;;0.10;0.10;;;;;;;23.59;45.66;101624.69;5155084;27;20261;-30
2022/05/18 11:28:01;;;;;;;0.00;0.00;;;;;;;23.59;45.62;101621.91;5104662;27;20544;-31
2022/05/18 11:30:50;;;;;;;0.10;0.10;;;;;;;23.61;45.35;101625.22;5131147;27;20047;-29
2022/05/18 11:33:39;;;;;;;0.00;0.00;;;;;;;23.61;45.43;101621.59;5121274;27;20051;-29
2022/05/18 11:36:18;;;;;;;0.10;0.10;;;;;;;23.60;45.41;101620.78;5117069;27;20133;-30
2022/05/18 11:39:07;;;;;;;0.00;0.00;;;;;;;23.60;45.45;101620.78;5134815;27;20137;-29
2022/05/18 11:41:43;;;;;;;0.10;0.10;;;;;;;23.58;45.59;101611.09;5117606;27;20295;-28
2022/05/18 11:44:25;;;;;;;0.00;0.00;;;;;;;23.59;45.45;101613.56;5137424;27;20074;-29
2022/05/18 11:47:14;;;;;;;0.10;0.10;;;;;;;23.59;45.50;101616.34;5130311;27;20081;-29
2022/05/18 11:50:06;;;;;;;0.10;0.10;;;;;;;23.59;45.43;101615.53;5116796;27;20081;-30
2022/05/18 11:53:03;;;;;;;0.10;0.10;;;;;;;23.59;45.51;101604.41;5115864;27;20416;-28
2022/05/18 11:55:39;;;;;;;0.10;0.10;;;;;;;23.57;45.54;101598.28;5122589;27;20139;-28
2022/05/18 11:58:47;;;;;;;0.10;0.10;;;;;;;23.56;46.38;101600.25;5131338;27;20792;-29
2022/05/18 12:01:31;;;;;;;0.10;0.10;;;;;;;23.63;46.24;101599.91;5130504;27;20054;-30
2022/05/18 12:04:22;;;;;;;0.10;0.10;;;;;;;23.60;46.11;101592.97;5133348;27;20051;-29
2022/05/18 12:07:01;;;;;;;0.10;0.10;;;;;;;23.60;45.94;101592.16;5116554;27;20039;-29
2022/05/18 12:09:46;;;;;;;0.10;0.10;;;;;;;23.58;46.35;101589.69;5133844;27;20046;-30
2022/05/18 12:12:25;;;;;;;0.10;0.10;;;;;;;23.65;46.29;101589.34;5131468;27;20473;-32